Time;durP1;ratioP1;P1;durP2;ratioP2;P2;SDS_P1;SDS_P2;PMS_P1;PMS_P2;Temp;Humidity;BMP_temperature;BMP_pressure;BME280_temperature;BME280_humidity;BME280_pressure;Samples;Min_cycle;Max_cycle;Signal;HPM_P1;HPM_P2
2023/11/29 00:04:23;;;;;;;2.45;1.85;;;15.00;67.30;;;;;;10401124;28;20036;-57
2023/11/29 00:09:24;;;;;;;2.38;1.80;;;14.90;66.70;;;;;;10409184;28;20362;-57
2023/11/29 00:14:25;;;;;;;2.58;1.85;;;14.90;66.60;;;;;;10408953;28;20088;-56
2023/11/29 00:19:27;;;;;;;2.58;1.52;;;14.90;66.60;;;;;;10409881;28;20038;-56
2023/11/29 00:24:27;;;;;;;2.40;1.65;;;14.90;66.60;;;;;;10408063;28;20452;-57
2023/11/29 00:29:28;;;;;;;3.00;1.70;;;14.90;66.70;;;;;;10416315;28;20024;-56
2023/11/29 00:34:29;;;;;;;3.13;1.50;;;14.90;66.60;;;;;;10371625;28;20038;-57
2023/11/29 00:39:30;;;;;;;3.25;1.52;;;14.80;66.70;;;;;;10368786;28;20025;-57
2023/11/29 00:44:31;;;;;;;2.92;1.50;;;14.80;66.60;;;;;;10397172;28;20041;-57
2023/11/29 00:49:32;;;;;;;3.22;1.58;;;14.80;66.80;;;;;;10408756;28;20046;-56
2023/11/29 00:54:32;;;;;;;2.10;1.25;;;14.80;66.70;;;;;;10408419;28;20112;-56
2023/11/29 00:59:33;;;;;;;1.77;1.05;;;14.80;66.70;;;;;;10408849;28;20021;-57
2023/11/29 01:04:34;;;;;;;1.83;1.30;;;14.80;66.80;;;;;;10408190;28;20029;-57
2023/11/29 01:09:35;;;;;;;1.88;1.27;;;14.80;66.80;;;;;;10408676;28;20029;-57
2023/11/29 01:14:35;;;;;;;2.17;1.52;;;14.70;66.90;;;;;;10407982;28;20035;-57
2023/11/29 01:19:36;;;;;;;3.00;1.23;;;14.70;66.80;;;;;;10393852;28;20048;-57
2023/11/29 01:24:37;;;;;;;2.22;1.35;;;14.70;66.80;;;;;;10400682;28;20465;-57
2023/11/29 01:29:37;;;;;;;2.20;1.33;;;14.70;66.90;;;;;;10389961;28;20036;-57
2023/11/29 01:34:41;;;;;;;2.22;1.67;;;14.70;66.90;;;;;;10375292;28;20033;-57
2023/11/29 01:39:44;;;;;;;2.75;1.30;;;14.70;66.80;;;;;;10375259;28;20105;-57
2023/11/29 01:44:46;;;;;;;2.47;1.48;;;14.70;67.00;;;;;;10406025;28;20033;-58
2023/11/29 01:49:47;;;;;;;2.03;1.05;;;14.70;67.00;;;;;;10415359;28;20073;-56
2023/11/29 01:54:47;;;;;;;1.77;1.00;;;14.70;67.10;;;;;;10415287;28;20457;-57
2023/11/29 01:59:48;;;;;;;2.05;1.20;;;14.70;66.80;;;;;;10415491;28;20052;-56
2023/11/29 02:04:50;;;;;;;2.65;1.08;;;14.60;66.80;;;;;;10414827;28;20033;-56
2023/11/29 02:09:51;;;;;;;2.00;1.00;;;14.60;66.80;;;;;;10413961;28;20036;-56
2023/11/29 02:14:56;;;;;;;4.15;1.13;;;14.60;66.80;;;;;;10414059;28;20500;-56
2023/11/29 02:19:57;;;;;;;2.80;1.88;;;14.60;66.80;;;;;;10414656;28;20025;-56
2023/11/29 02:24:58;;;;;;;2.70;0.90;;;14.60;66.80;;;;;;10414036;28;20052;-57
2023/11/29 02:29:58;;;;;;;1.92;1.25;;;14.60;66.80;;;;;;10418745;28;20029;-57
2023/11/29 02:34:59;;;;;;;1.40;1.00;;;14.60;66.90;;;;;;10372193;28;20050;-56
2023/11/29 02:40:00;;;;;;;1.13;0.75;;;14.60;66.80;;;;;;10372908;28;20041;-55
2023/11/29 02:45:01;;;;;;;1.73;0.98;;;14.60;66.90;;;;;;10387941;28;20040;-57
2023/11/29 02:50:01;;;;;;;2.40;1.25;;;14.50;66.80;;;;;;10413433;28;20051;-57
2023/11/29 02:55:02;;;;;;;2.97;0.95;;;14.50;66.90;;;;;;10412946;28;20075;-56
2023/11/29 03:00:04;;;;;;;2.25;1.00;;;14.50;67.10;;;;;;10413560;28;20116;-57
2023/11/29 03:05:05;;;;;;;2.35;1.42;;;14.50;67.00;;;;;;10412591;28;20369;-57
2023/11/29 03:10:06;;;;;;;1.95;1.30;;;14.50;67.00;;;;;;10386518;28;20025;-57
2023/11/29 03:15:09;;;;;;;1.90;0.93;;;14.50;66.90;;;;;;10371339;28;20470;-57
2023/11/29 03:20:10;;;;;;;1.52;0.88;;;14.50;66.90;;;;;;10370217;28;20491;-57
2023/11/29 03:25:10;;;;;;;2.95;1.02;;;14.50;66.80;;;;;;10371392;28;20022;-57
2023/11/29 03:30:12;;;;;;;3.75;0.93;;;14.50;67.00;;;;;;10391092;28;20072;-57
2023/11/29 03:35:13;;;;;;;2.13;1.30;;;14.50;67.10;;;;;;10370896;28;20034;-57
2023/11/29 03:40:14;;;;;;;1.35;0.80;;;14.40;67.00;;;;;;10372484;28;20029;-57
2023/11/29 03:45:15;;;;;;;2.28;1.08;;;14.40;67.00;;;;;;10408757;28;20049;-56
2023/11/29 03:50:15;;;;;;;1.83;1.13;;;14.40;67.00;;;;;;10400912;28;20494;-57
2023/11/29 03:55:16;;;;;;;1.58;1.13;;;14.40;67.00;;;;;;10382073;28;20096;-57
2023/11/29 04:00:18;;;;;;;1.98;1.23;;;14.40;67.00;;;;;;10369711;28;20113;-57
2023/11/29 04:05:18;;;;;;;1.35;0.80;;;14.40;67.10;;;;;;10369763;28;20026;-57
2023/11/29 04:10:19;;;;;;;1.35;1.02;;;14.40;67.10;;;;;;10369218;28;20413;-56
2023/11/29 04:15:20;;;;;;;1.27;0.90;;;14.40;67.20;;;;;;10368128;28;20076;-55
2023/11/29 04:20:21;;;;;;;2.05;0.90;;;14.40;67.10;;;;;;10370666;28;20021;-55
2023/11/29 04:25:23;;;;;;;2.20;1.02;;;14.30;67.10;;;;;;10367134;28;20473;-54
2023/11/29 04:30:24;;;;;;;6.03;1.35;;;14.40;67.30;;;;;;10382849;28;20038;-54
2023/11/29 04:35:24;;;;;;;1.35;0.93;;;14.40;67.60;;;;;;10370421;28;20077;-54
2023/11/29 04:40:25;;;;;;;1.45;0.90;;;14.50;67.60;;;;;;10378849;28;20042;-55
2023/11/29 04:45:26;;;;;;;2.97;1.23;;;14.50;67.60;;;;;;10377067;28;20118;-53
2023/11/29 04:50:26;;;;;;;1.90;1.00;;;14.50;67.60;;;;;;10379364;28;20568;-55
2023/11/29 04:55:27;;;;;;;1.83;0.80;;;14.50;67.70;;;;;;10404473;28;20494;-53
2023/11/29 05:00:28;;;;;;;2.50;0.90;;;14.40;67.60;;;;;;10404710;28;20504;-54
2023/11/29 05:05:28;;;;;;;1.65;1.02;;;14.40;67.70;;;;;;10406227;28;20063;-54
2023/11/29 05:10:29;;;;;;;1.80;1.02;;;14.30;67.70;;;;;;10405823;28;20029;-54
2023/11/29 05:15:30;;;;;;;1.98;1.08;;;14.40;67.70;;;;;;10405425;28;20061;-54
2023/11/29 05:20:31;;;;;;;1.25;0.85;;;14.50;67.10;;;;;;10376047;28;20057;-54
2023/11/29 05:25:32;;;;;;;1.25;0.85;;;14.70;66.70;;;;;;10377085;28;20029;-55
2023/11/29 05:30:34;;;;;;;1.80;0.70;;;14.80;66.20;;;;;;10404402;28;20510;-55
2023/11/29 05:35:35;;;;;;;2.38;1.20;;;14.90;65.80;;;;;;10364182;28;20030;-56
2023/11/29 05:40:35;;;;;;;1.77;0.90;;;15.00;65.40;;;;;;10364182;28;20037;-55
2023/11/29 05:45:36;;;;;;;1.25;0.60;;;15.20;65.20;;;;;;10367312;28;20503;-55
2023/11/29 05:50:39;;;;;;;1.90;0.70;;;15.30;64.80;;;;;;10363794;28;20401;-53
2023/11/29 05:55:41;;;;;;;1.50;0.55;;;15.40;64.40;;;;;;10363996;28;20354;-55
2023/11/29 06:00:42;;;;;;;2.25;0.70;;;15.50;64.10;;;;;;10364714;28;20496;-54
2023/11/29 06:05:43;;;;;;;2.60;0.60;;;15.60;63.70;;;;;;10363913;28;20032;-54
2023/11/29 06:10:44;;;;;;;2.00;0.80;;;15.70;63.40;;;;;;10371055;28;20034;-53
2023/11/29 06:15:44;;;;;;;1.95;0.73;;;15.80;63.20;;;;;;10375586;28;20013;-52
2023/11/29 06:20:45;;;;;;;2.70;0.60;;;15.90;63.30;;;;;;10411450;28;20511;-52
2023/11/29 06:25:47;;;;;;;6.10;0.93;;;15.90;64.00;;;;;;10411943;28;20469;-54
2023/11/29 06:30:48;;;;;;;5.15;0.82;;;16.00;64.20;;;;;;10409685;28;20041;-53
2023/11/29 06:35:49;;;;;;;9.27;1.35;;;16.10;64.40;;;;;;10371056;28;20084;-55
2023/11/29 06:40:49;;;;;;;5.55;1.08;;;16.10;64.40;;;;;;10368226;28;20038;-52
2023/11/29 06:45:50;;;;;;;4.82;1.05;;;16.20;64.10;;;;;;10409882;28;20064;-56
2023/11/29 06:50:53;;;;;;;9.10;1.65;;;16.30;63.90;;;;;;10396707;28;20041;-55
2023/11/29 06:55:55;;;;;;;8.75;1.80;;;16.30;63.80;;;;;;10379834;28;20097;-52
2023/11/29 07:00:56;;;;;;;17.65;1.98;;;16.50;63.50;;;;;;10377876;28;20533;-52
2023/11/29 07:05:59;;;;;;;14.73;2.20;;;16.50;63.30;;;;;;10401547;28;20044;-47
2023/11/29 07:11:04;;;;;;;16.58;2.53;;;16.60;62.80;;;;;;10381406;28;20358;-54
2023/11/29 07:16:05;;;;;;;8.23;2.00;;;16.60;63.20;;;;;;10372904;28;20026;-52
2023/11/29 07:21:06;;;;;;;16.85;2.50;;;16.70;62.40;;;;;;10369288;28;20517;-53
2023/11/29 07:26:07;;;;;;;14.05;2.88;;;16.70;62.30;;;;;;10370210;28;20466;-50
2023/11/29 07:31:10;;;;;;;10.35;1.83;;;16.70;62.00;;;;;;10382657;28;20030;-51
2023/11/29 07:36:12;;;;;;;7.85;1.40;;;16.80;61.80;;;;;;10372956;28;20233;-53
2023/11/29 07:41:12;;;;;;;11.68;1.55;;;16.80;61.60;;;;;;10371032;28;20611;-53
2023/11/29 07:46:13;;;;;;;7.75;1.40;;;16.80;61.60;;;;;;10410416;28;20367;-54
2023/11/29 07:51:14;;;;;;;4.78;1.02;;;16.90;61.50;;;;;;10409789;28;20095;-53
2023/11/29 07:56:15;;;;;;;6.15;1.05;;;16.90;61.40;;;;;;10408808;28;20056;-54
2023/11/29 08:01:15;;;;;;;5.80;1.38;;;16.90;61.30;;;;;;10408898;28;20048;-53
2023/11/29 08:06:17;;;;;;;10.30;1.25;;;16.80;61.30;;;;;;10409402;28;20029;-54
2023/11/29 08:11:18;;;;;;;7.22;1.20;;;16.90;61.20;;;;;;10399306;28;20496;-53
2023/11/29 08:16:19;;;;;;;5.75;1.15;;;17.00;60.90;;;;;;10379940;28;20032;-53
2023/11/29 08:21:19;;;;;;;6.57;1.00;;;17.00;60.90;;;;;;10391854;28;20029;-54
2023/11/29 08:26:20;;;;;;;4.95;1.08;;;16.90;60.80;;;;;;10369638;28;20381;-52
2023/11/29 08:31:21;;;;;;;3.22;1.23;;;17.00;60.80;;;;;;10386283;28;20025;-51
2023/11/29 08:36:22;;;;;;;3.92;1.23;;;17.00;60.70;;;;;;10386863;28;20499;-54
2023/11/29 08:41:22;;;;;;;7.95;2.65;;;17.00;61.50;;;;;;10388822;28;20486;-52
2023/11/29 08:46:23;;;;;;;5.13;1.42;;;17.00;60.70;;;;;;10379431;28;20457;-53
2023/11/29 08:51:24;;;;;;;10.77;1.60;;;17.00;60.50;;;;;;10366465;28;20038;-55
2023/11/29 08:56:25;;;;;;;4.70;1.63;;;16.90;60.80;;;;;;10367448;28;20049;-52
2023/11/29 09:01:26;;;;;;;6.18;1.15;;;17.10;60.70;;;;;;10366685;28;20393;-55
2023/11/29 09:06:29;;;;;;;8.45;1.33;;;17.10;60.60;;;;;;10365996;28;20131;-52
2023/11/29 09:11:30;;;;;;;4.25;1.27;;;17.20;60.40;;;;;;10366442;28;20053;-53
2023/11/29 09:16:31;;;;;;;3.85;1.20;;;17.30;60.40;;;;;;10367104;28;20030;-51
2023/11/29 09:21:35;;;;;;;5.30;1.08;;;17.30;60.60;;;;;;10366280;28;20033;-53
2023/11/29 09:26:35;;;;;;;6.03;1.25;;;17.30;60.80;;;;;;10366422;28;20485;-54
2023/11/29 09:31:36;;;;;;;5.55;1.27;;;17.30;61.30;;;;;;10381112;28;20030;-51
2023/11/29 09:36:37;;;;;;;8.05;1.50;;;17.40;62.00;;;;;;10382450;28;20489;-52
2023/11/29 09:41:40;;;;;;;5.38;1.08;;;17.20;62.20;;;;;;10391533;28;20360;-54
2023/11/29 09:46:42;;;;;;;3.58;1.15;;;17.20;62.70;;;;;;10411568;28;20033;-54
2023/11/29 09:51:43;;;;;;;5.05;1.38;;;17.20;63.40;;;;;;10413928;28;20048;-57
2023/11/29 09:56:44;;;;;;;4.95;1.02;;;17.10;63.60;;;;;;10413399;28;20036;-58
2023/11/29 10:01:46;;;;;;;8.25;1.10;;;17.00;64.00;;;;;;10399406;28;20033;-56
2023/11/29 10:06:47;;;;;;;4.35;1.23;;;17.00;64.20;;;;;;10413025;28;20120;-57
2023/11/29 10:11:48;;;;;;;4.28;1.40;;;16.90;64.50;;;;;;10392705;28;20036;-56
2023/11/29 10:16:49;;;;;;;3.08;1.02;;;16.90;64.90;;;;;;10403148;28;20388;-52
2023/11/29 10:21:53;;;;;;;4.20;0.85;;;16.70;65.30;;;;;;10411724;28;20053;-53
2023/11/29 10:26:54;;;;;;;7.50;1.90;;;16.60;66.00;;;;;;10390611;28;20505;-55
2023/11/29 10:31:59;;;;;;;6.82;1.58;;;16.60;64.90;;;;;;10402454;28;20577;-53
2023/11/29 10:37:04;;;;;;;16.02;1.45;;;16.50;65.70;;;;;;10395572;28;20435;-53
2023/11/29 10:42:08;;;;;;;4.53;1.05;;;16.50;65.80;;;;;;10380910;28;20092;-52
2023/11/29 10:47:34;;;;;;;3.65;0.95;;;16.50;64.80;;;;;;10412563;28;20033;-52
2023/11/29 10:52:35;;;;;;;6.32;1.73;;;16.40;64.80;;;;;;10370711;28;20389;-52
2023/11/29 10:57:52;;;;;;;6.70;1.02;;;16.40;64.80;;;;;;10371166;28;20481;-54
2023/11/29 11:02:53;;;;;;;4.10;0.88;;;16.40;64.90;;;;;;10370864;28;20025;-51
2023/11/29 11:07:53;;;;;;;3.33;0.80;;;16.40;64.60;;;;;;10379788;28;20026;-50
2023/11/29 11:12:56;;;;;;;1.98;0.60;;;16.40;64.40;;;;;;10369980;28;20032;-53
2023/11/29 11:18:06;;;;;;;6.10;0.93;;;16.50;65.30;;;;;;10370982;28;20026;-52
2023/11/29 11:23:07;;;;;;;2.58;1.00;;;16.30;65.10;;;;;;10370119;28;20113;-52
2023/11/29 11:28:35;;;;;;;2.45;0.70;;;16.40;64.50;;;;;;10370183;28;20684;-52
2023/11/29 11:33:54;;;;;;;2.60;0.95;;;16.40;64.20;;;;;;10386068;28;20645;-53
2023/11/29 11:38:55;;;;;;;2.53;0.95;;;16.40;64.10;;;;;;10370371;28;20036;-53
2023/11/29 11:43:56;;;;;;;3.08;0.90;;;16.30;64.50;;;;;;10386341;28;20040;-51
2023/11/29 11:48:57;;;;;;;6.97;0.98;;;16.40;63.90;;;;;;10394577;28;20037;-53
2023/11/29 11:53:59;;;;;;;2.83;0.80;;;16.40;64.20;;;;;;10406976;28;20500;-52
2023/11/29 11:59:00;;;;;;;2.20;0.80;;;16.50;64.60;;;;;;10386826;28;20030;-53
2023/11/29 12:04:04;;;;;;;1.98;0.70;;;16.50;64.70;;;;;;10396104;28;20045;-52
2023/11/29 12:09:06;;;;;;;3.45;0.95;;;16.40;64.80;;;;;;10382926;28;20025;-51
2023/11/29 12:14:10;;;;;;;4.57;1.02;;;16.40;65.00;;;;;;10386138;28;20072;-53
2023/11/29 12:19:11;;;;;;;4.13;1.48;;;16.50;65.00;;;;;;10409002;28;20057;-52
2023/11/29 12:24:11;;;;;;;4.75;0.98;;;16.50;64.80;;;;;;10408779;28;20125;-55
2023/11/29 12:29:15;;;;;;;6.57;1.15;;;16.40;64.40;;;;;;10413233;28;20028;-55
2023/11/29 12:34:16;;;;;;;2.33;1.00;;;16.50;64.20;;;;;;10373287;28;20474;-54
2023/11/29 12:39:16;;;;;;;2.85;0.75;;;16.50;64.10;;;;;;10367651;28;20045;-53
2023/11/29 12:44:17;;;;;;;3.92;1.02;;;16.40;64.00;;;;;;10394469;28;20039;-52
2023/11/29 12:49:18;;;;;;;3.83;1.08;;;16.40;64.00;;;;;;10408004;28;20033;-54
2023/11/29 12:54:19;;;;;;;3.53;0.75;;;16.40;63.80;;;;;;10400838;28;20435;-52
2023/11/29 12:59:20;;;;;;;2.47;0.75;;;16.40;64.00;;;;;;10380458;28;20684;-53
2023/11/29 13:04:22;;;;;;;2.35;1.05;;;16.40;63.60;;;;;;10365625;28;20034;-52
2023/11/29 13:09:22;;;;;;;4.10;0.90;;;16.50;63.40;;;;;;10366405;28;20030;-53
2023/11/29 13:14:23;;;;;;;5.47;0.90;;;16.50;63.40;;;;;;10366613;28;20386;-52
2023/11/29 13:19:24;;;;;;;2.40;0.90;;;16.40;63.80;;;;;;10369043;28;20026;-52
2023/11/29 13:24:25;;;;;;;5.30;1.00;;;16.50;64.20;;;;;;10374461;28;20099;-53
2023/11/29 13:29:25;;;;;;;4.55;1.38;;;16.50;65.30;;;;;;10387277;28;20078;-50
2023/11/29 13:34:26;;;;;;;6.40;1.40;;;16.50;65.50;;;;;;10377898;28;20022;-52
2023/11/29 13:39:27;;;;;;;13.07;1.73;;;16.60;65.50;;;;;;10374585;28;20029;-49
2023/11/29 13:44:28;;;;;;;8.15;1.73;;;16.60;65.20;;;;;;10402821;28;20060;-50
2023/11/29 13:49:29;;;;;;;12.55;1.73;;;16.60;65.10;;;;;;10414963;28;20136;-52
2023/11/29 13:54:30;;;;;;;6.22;1.13;;;16.60;65.20;;;;;;10414653;28;20167;-51
2023/11/29 13:59:30;;;;;;;7.80;1.50;;;16.60;65.00;;;;;;10413691;28;20028;-51
2023/11/29 14:04:31;;;;;;;8.98;1.25;;;16.60;65.40;;;;;;10413814;28;20037;-52
2023/11/29 14:09:36;;;;;;;11.20;2.10;;;16.50;65.80;;;;;;10402916;28;20037;-50
2023/11/29 14:14:36;;;;;;;9.45;1.10;;;16.40;65.50;;;;;;10388216;28;20042;-53
2023/11/29 14:19:38;;;;;;;10.18;1.20;;;16.40;65.40;;;;;;10389525;28;20018;-52
2023/11/29 14:24:38;;;;;;;7.88;1.58;;;16.40;65.10;;;;;;10383633;28;20037;-54
2023/11/29 14:29:39;;;;;;;11.18;1.85;;;16.40;65.20;;;;;;10383983;28;20033;-53
2023/11/29 14:34:40;;;;;;;6.68;1.08;;;16.30;64.60;;;;;;10387515;28;20488;-53
2023/11/29 14:39:42;;;;;;;7.57;1.20;;;16.30;64.20;;;;;;10411779;28;20029;-51
2023/11/29 14:44:43;;;;;;;4.97;1.23;;;16.40;63.90;;;;;;10409210;28;20021;-53
2023/11/29 14:49:43;;;;;;;4.25;1.15;;;16.40;63.90;;;;;;10412333;28;20053;-54
2023/11/29 14:54:44;;;;;;;4.10;1.63;;;16.40;63.90;;;;;;10411954;28;20112;-54
2023/11/29 14:59:46;;;;;;;8.82;1.30;;;16.40;63.80;;;;;;10412628;28;20095;-53
2023/11/29 15:04:46;;;;;;;4.93;1.00;;;16.40;63.70;;;;;;10411466;28;20048;-52
2023/11/29 15:09:47;;;;;;;2.72;1.00;;;16.40;63.60;;;;;;10412096;28;20038;-53
2023/11/29 15:14:48;;;;;;;4.55;1.00;;;16.50;63.40;;;;;;10411256;28;20026;-52
2023/11/29 15:19:49;;;;;;;1.98;1.10;;;16.50;63.30;;;;;;10410258;28;20026;-53
2023/11/29 15:24:49;;;;;;;3.22;0.88;;;16.50;63.10;;;;;;10411127;28;20360;-53
2023/11/29 15:29:50;;;;;;;1.77;0.90;;;16.50;63.10;;;;;;10416459;28;20029;-53
2023/11/29 15:34:52;;;;;;;4.13;1.00;;;16.50;63.00;;;;;;10386879;28;20493;-54
2023/11/29 15:39:52;;;;;;;6.85;1.05;;;16.50;63.10;;;;;;10401536;28;20092;-51
2023/11/29 15:44:53;;;;;;;7.75;2.03;;;16.40;63.10;;;;;;10408079;28;20545;-56
2023/11/29 15:49:54;;;;;;;10.52;1.50;;;16.50;62.90;;;;;;10411579;28;20045;-56
2023/11/29 15:54:55;;;;;;;4.70;1.13;;;16.60;62.50;;;;;;10403484;28;20038;-56
2023/11/29 15:59:55;;;;;;;4.72;1.17;;;16.50;62.70;;;;;;10368952;28;20699;-55
2023/11/29 16:04:56;;;;;;;4.47;1.10;;;16.60;62.70;;;;;;10370361;28;20040;-56
2023/11/29 16:09:57;;;;;;;6.65;1.48;;;16.60;62.70;;;;;;10368320;28;20084;-57
2023/11/29 16:14:57;;;;;;;6.03;1.33;;;16.60;62.50;;;;;;10369965;28;20671;-54
2023/11/29 16:19:58;;;;;;;6.47;1.40;;;16.60;62.70;;;;;;10389602;28;20401;-56
2023/11/29 16:24:59;;;;;;;12.30;1.80;;;16.60;63.10;;;;;;10388075;28;20675;-55
2023/11/29 16:30:04;;;;;;;5.95;1.38;;;16.50;63.40;;;;;;10386678;28;20030;-56
2023/11/29 16:35:06;;;;;;;12.48;5.00;;;16.60;63.50;;;;;;10404762;28;20481;-56
2023/11/29 16:40:07;;;;;;;13.45;4.85;;;16.50;63.50;;;;;;10399342;28;20040;-55
2023/11/29 16:45:08;;;;;;;12.40;5.35;;;16.60;63.60;;;;;;10387044;28;20022;-53
2023/11/29 16:50:10;;;;;;;12.68;4.65;;;16.60;63.40;;;;;;10379495;28;20045;-56
2023/11/29 16:55:12;;;;;;;13.95;4.90;;;16.80;62.80;;;;;;10388876;28;20112;-57
2023/11/29 17:00:13;;;;;;;7.47;3.83;;;16.90;65.20;;;;;;10385138;28;20087;-52
2023/11/29 17:05:18;;;;;;;9.73;3.38;;;16.80;65.30;;;;;;10422199;28;20041;-51
2023/11/29 17:10:19;;;;;;;7.15;3.45;;;16.70;65.20;;;;;;10372150;28;20040;-57
2023/11/29 17:15:20;;;;;;;12.07;4.07;;;16.70;64.30;;;;;;10393116;28;20409;-56
2023/11/29 17:20:21;;;;;;;10.80;4.35;;;16.70;63.90;;;;;;10384410;28;20036;-54
2023/11/29 17:25:22;;;;;;;9.70;3.67;;;16.80;62.70;;;;;;10408980;28;20052;-56
2023/11/29 17:30:22;;;;;;;10.23;3.50;;;16.80;63.40;;;;;;10410044;28;20033;-55
2023/11/29 17:35:23;;;;;;;10.50;3.72;;;16.90;63.20;;;;;;10369387;28;20109;-56
2023/11/29 17:40:24;;;;;;;11.20;3.90;;;16.90;62.90;;;;;;10385430;28;20056;-55
2023/11/29 17:45:25;;;;;;;10.85;4.22;;;16.90;62.90;;;;;;10385259;28;20030;-54
2023/11/29 17:50:25;;;;;;;8.57;3.13;;;16.90;62.80;;;;;;10377330;28;20104;-53
2023/11/29 17:55:26;;;;;;;11.43;4.28;;;16.80;63.20;;;;;;10382658;28;20052;-54
2023/11/29 18:00:27;;;;;;;7.05;3.60;;;16.70;63.20;;;;;;10383016;28;20025;-54
2023/11/29 18:05:28;;;;;;;6.43;2.67;;;16.70;63.40;;;;;;10379973;28;20591;-55
2023/11/29 18:10:52;;;;;;;8.60;3.50;;;16.60;63.20;;;;;;10387994;28;20048;-54
2023/11/29 18:15:54;;;;;;;8.43;3.97;;;16.60;63.20;;;;;;10389952;28;20034;-53
2023/11/29 18:20:56;;;;;;;6.80;3.50;;;16.60;62.90;;;;;;10373787;28;20185;-54
2023/11/29 18:25:56;;;;;;;8.60;3.60;;;16.60;62.80;;;;;;10374591;28;20026;-55
2023/11/29 18:30:59;;;;;;;6.68;3.53;;;16.60;62.70;;;;;;10407763;28;20026;-53
2023/11/29 18:36:00;;;;;;;7.97;3.22;;;16.70;62.50;;;;;;10391781;28;20524;-54
2023/11/29 18:41:01;;;;;;;6.47;2.88;;;16.60;62.90;;;;;;10385717;28;20049;-53
2023/11/29 18:46:02;;;;;;;8.40;3.20;;;16.70;63.00;;;;;;10386362;28;20428;-54
2023/11/29 18:51:03;;;;;;;9.48;3.03;;;16.80;62.80;;;;;;10398797;28;20107;-55
2023/11/29 18:56:06;;;;;;;4.15;3.00;;;16.70;62.60;;;;;;10406012;28;20405;-53
2023/11/29 19:01:07;;;;;;;4.22;2.92;;;16.70;62.60;;;;;;10368054;28;20033;-53
2023/11/29 19:06:08;;;;;;;7.10;3.08;;;16.70;62.40;;;;;;10369300;28;20113;-54
2023/11/29 19:11:09;;;;;;;6.72;3.08;;;16.70;62.60;;;;;;10371654;28;20600;-54
2023/11/29 19:16:13;;;;;;;3.38;2.50;;;16.70;62.40;;;;;;10371471;28;20037;-55
2023/11/29 19:21:13;;;;;;;3.85;2.38;;;16.60;62.60;;;;;;10372187;28;20109;-55
2023/11/29 19:26:14;;;;;;;6.82;2.90;;;16.70;62.40;;;;;;10372370;28;20026;-54
2023/11/29 19:31:15;;;;;;;5.50;3.08;;;16.70;62.20;;;;;;10386986;28;20042;-55
2023/11/29 19:36:16;;;;;;;3.67;2.92;;;16.80;62.10;;;;;;10371349;28;20018;-56
2023/11/29 19:41:16;;;;;;;3.70;3.05;;;16.80;61.90;;;;;;10385465;28;20041;-55
2023/11/29 19:46:17;;;;;;;4.82;3.03;;;16.80;61.80;;;;;;10378468;28;20034;-53
2023/11/29 19:51:19;;;;;;;3.90;2.75;;;16.80;61.70;;;;;;10391199;28;20045;-52
2023/11/29 19:56:20;;;;;;;4.13;3.00;;;16.70;61.80;;;;;;10376755;28;20465;-55
2023/11/29 20:01:21;;;;;;;4.18;2.75;;;16.80;61.70;;;;;;10374853;28;20064;-54
2023/11/29 20:06:22;;;;;;;4.63;2.90;;;16.70;61.90;;;;;;10378649;28;20535;-53
2023/11/29 20:11:22;;;;;;;4.25;2.60;;;16.70;61.50;;;;;;10377425;28;20029;-54
2023/11/29 20:16:23;;;;;;;10.65;3.03;;;16.60;61.70;;;;;;10387393;28;20017;-54
2023/11/29 20:21:24;;;;;;;4.90;3.35;;;16.50;61.70;;;;;;10382200;28;20021;-53
2023/11/29 20:26:25;;;;;;;7.10;2.65;;;16.50;61.80;;;;;;10386521;28;20038;-55
2023/11/29 20:31:25;;;;;;;5.03;2.90;;;16.40;61.80;;;;;;10386179;28;20044;-55
2023/11/29 20:36:26;;;;;;;7.70;3.78;;;16.30;62.00;;;;;;10386663;28;20396;-55
2023/11/29 20:41:28;;;;;;;4.88;3.58;;;16.20;62.00;;;;;;10381419;28;20025;-55
2023/11/29 20:46:29;;;;;;;3.40;2.70;;;16.10;62.10;;;;;;10383013;28;20049;-55
2023/11/29 20:51:30;;;;;;;4.88;3.17;;;16.00;62.20;;;;;;10375744;28;20058;-55
2023/11/29 20:56:30;;;;;;;5.57;3.08;;;15.90;62.30;;;;;;10367472;28;20092;-53
2023/11/29 21:01:31;;;;;;;5.57;3.65;;;15.90;62.50;;;;;;10368276;28;20034;-53
2023/11/29 21:06:32;;;;;;;3.97;3.05;;;15.80;62.60;;;;;;10368413;28;20044;-54
2023/11/29 21:11:33;;;;;;;4.35;2.88;;;15.80;62.70;;;;;;10367679;28;20036;-55
2023/11/29 21:16:34;;;;;;;4.72;3.00;;;15.70;62.70;;;;;;10368240;28;20030;-54
2023/11/29 21:21:35;;;;;;;4.60;2.75;;;15.60;62.80;;;;;;10381423;28;20030;-54
2023/11/29 21:26:35;;;;;;;4.13;3.15;;;15.60;62.90;;;;;;10368082;28;20065;-55
2023/11/29 21:31:36;;;;;;;4.53;2.90;;;15.60;62.80;;;;;;10382489;28;20034;-55
2023/11/29 21:36:37;;;;;;;6.50;4.00;;;15.50;62.90;;;;;;10368008;28;20034;-55
2023/11/29 21:41:38;;;;;;;5.00;3.85;;;15.50;62.90;;;;;;10376777;28;20661;-55
2023/11/29 21:46:39;;;;;;;5.28;3.78;;;15.40;62.80;;;;;;10410277;28;20030;-53
2023/11/29 21:51:40;;;;;;;4.82;3.55;;;15.40;62.70;;;;;;10375032;28;20042;-55
2023/11/29 21:56:41;;;;;;;7.75;3.78;;;15.40;62.80;;;;;;10375425;28;20030;-54
2023/11/29 22:01:41;;;;;;;5.28;3.85;;;15.30;62.60;;;;;;10374883;28;20036;-54
2023/11/29 22:06:42;;;;;;;5.72;3.38;;;15.30;62.60;;;;;;10375009;28;20662;-54
2023/11/29 22:11:43;;;;;;;5.65;3.80;;;15.20;62.40;;;;;;10374161;28;20477;-54
2023/11/29 22:16:43;;;;;;;4.93;3.65;;;15.20;62.30;;;;;;10375970;28;20561;-53
2023/11/29 22:21:44;;;;;;;5.22;3.78;;;15.20;62.40;;;;;;10385399;28;20022;-54
2023/11/29 22:26:45;;;;;;;5.03;3.60;;;15.20;62.70;;;;;;10374141;28;20042;-54
2023/11/29 22:31:46;;;;;;;4.88;2.95;;;15.20;62.90;;;;;;10387886;28;20112;-55
2023/11/29 22:36:48;;;;;;;5.53;3.47;;;15.10;62.60;;;;;;10373705;28;20029;-55
2023/11/29 22:41:48;;;;;;;4.50;3.47;;;15.10;62.50;;;;;;10373300;28;20037;-55
2023/11/29 22:46:49;;;;;;;4.85;3.22;;;15.10;62.50;;;;;;10399753;28;20037;-54
2023/11/29 22:51:50;;;;;;;5.80;3.45;;;15.10;62.60;;;;;;10371901;28;20038;-55
2023/11/29 22:56:50;;;;;;;6.35;3.70;;;15.10;62.40;;;;;;10373096;28;20097;-54
2023/11/29 23:01:51;;;;;;;3.42;2.85;;;15.10;62.40;;;;;;10372508;28;20032;-54
2023/11/29 23:06:52;;;;;;;4.93;3.20;;;15.00;62.40;;;;;;10372591;28;20026;-53
2023/11/29 23:11:53;;;;;;;4.50;3.13;;;15.00;62.40;;;;;;10399450;28;20038;-55
2023/11/29 23:16:53;;;;;;;5.22;3.75;;;15.00;62.40;;;;;;10412975;28;20030;-55
2023/11/29 23:21:54;;;;;;;4.53;3.50;;;15.00;62.50;;;;;;10412970;28;20033;-55
2023/11/29 23:26:55;;;;;;;4.68;3.10;;;15.00;62.60;;;;;;10381568;28;20044;-55
2023/11/29 23:31:55;;;;;;;4.47;3.13;;;14.90;62.70;;;;;;10385723;28;20038;-55
2023/11/29 23:36:56;;;;;;;4.82;3.28;;;14.90;62.50;;;;;;10371657;28;20026;-55
2023/11/29 23:41:57;;;;;;;5.00;3.30;;;14.90;62.30;;;;;;10378937;28;20040;-54
2023/11/29 23:46:57;;;;;;;5.72;3.35;;;14.90;62.50;;;;;;10412183;28;20041;-55
2023/11/29 23:51:58;;;;;;;4.70;3.40;;;14.90;62.50;;;;;;10411375;28;20049;-54
2023/11/29 23:56:59;;;;;;;4.50;3.35;;;14.90;62.40;;;;;;10411474;28;20483;-54
